createdAt,value
2023-05-01T00:01:35.238Z,44.70
2023-05-01T00:04:02.290Z,44.70
2023-05-01T00:06:29.979Z,44.80
2023-05-01T00:08:59.515Z,45.50
2023-05-01T00:11:26.506Z,44.80
2023-05-01T00:13:54.473Z,44.90
2023-05-01T00:16:23.863Z,44.90
2023-05-01T00:18:50.995Z,44.90
2023-05-01T00:21:17.849Z,44.90
2023-05-01T00:23:44.793Z,44.80
2023-05-01T00:26:14.261Z,44.80
2023-05-01T00:28:43.674Z,44.80
2023-05-01T00:31:13.099Z,44.90
2023-05-01T00:33:42.033Z,45.00
2023-05-01T00:36:11.428Z,45.00
2023-05-01T00:38:38.377Z,45.10
2023-05-01T00:41:07.567Z,45.20
2023-05-01T00:43:34.449Z,45.20
2023-05-01T00:46:02.182Z,45.30
2023-05-01T00:48:31.663Z,45.20
2023-05-01T00:51:01.128Z,45.30
2023-05-01T00:53:28.390Z,45.40
2023-05-01T00:56:00.858Z,45.40
2023-05-01T00:58:32.499Z,45.50
2023-05-01T01:00:59.577Z,45.60
2023-05-01T01:03:26.753Z,45.60
2023-05-01T01:06:08.103Z,45.60
2023-05-01T01:08:55.054Z,45.70
2023-05-01T01:11:44.294Z,45.70
2023-05-01T01:14:27.610Z,45.70
2023-05-01T01:17:08.621Z,45.70
2023-05-01T01:20:31.625Z,45.80
2023-05-01T01:23:42.098Z,46.10
2023-05-01T01:26:20.064Z,46.00
2023-05-01T01:29:23.190Z,45.90
2023-05-01T01:32:17.537Z,45.80
2023-05-01T01:35:02.696Z,46.00
2023-05-01T01:37:41.544Z,46.00
2023-05-01T01:40:15.809Z,46.00
2023-05-01T01:42:51.442Z,46.10
2023-05-01T01:45:25.513Z,46.10
2023-05-01T01:47:59.693Z,46.10
2023-05-01T01:50:32.979Z,46.10
2023-05-01T01:53:03.291Z,46.20
2023-05-01T01:55:33.161Z,46.20
2023-05-01T01:58:03.115Z,46.20
2023-05-01T02:00:36.269Z,46.10
2023-05-01T02:03:04.285Z,46.20
2023-05-01T02:05:33.269Z,46.30
2023-05-01T02:08:01.755Z,46.40
2023-05-01T02:10:34.767Z,46.40
2023-05-01T02:13:05.837Z,46.40
2023-05-01T02:15:37.904Z,46.40
2023-05-01T02:18:09.013Z,46.40
2023-05-01T02:20:36.738Z,46.40
2023-05-01T02:23:04.938Z,46.50
2023-05-01T02:25:37.837Z,46.60
2023-05-01T02:28:14.400Z,46.80
2023-05-01T02:30:41.362Z,46.90
2023-05-01T02:33:11.011Z,46.80
2023-05-01T02:35:47.577Z,46.80
2023-05-01T02:38:16.220Z,47.00
2023-05-01T02:40:55.290Z,47.00
2023-05-01T02:43:25.311Z,47.30
2023-05-01T02:45:59.857Z,47.30
2023-05-01T02:48:29.711Z,47.50
2023-05-01T02:50:57.261Z,47.60
2023-05-01T02:53:26.317Z,47.80
2023-05-01T02:55:53.612Z,47.80
2023-05-01T02:58:25.990Z,47.80
2023-05-01T03:00:52.890Z,48.00
2023-05-01T03:03:19.953Z,48.10
2023-05-01T03:05:48.926Z,48.20
2023-05-01T03:08:17.914Z,48.20
2023-05-01T03:10:44.806Z,48.30
2023-05-01T03:13:12.164Z,48.40
2023-05-01T03:15:44.212Z,48.40
2023-05-01T03:18:13.689Z,48.50
2023-05-01T03:20:40.773Z,48.60
2023-05-01T03:23:07.687Z,48.70
2023-05-01T03:25:34.591Z,48.70
2023-05-01T03:28:04.060Z,48.80
2023-05-01T03:30:36.330Z,48.90
2023-05-01T03:33:03.348Z,49.00
2023-05-01T03:35:32.611Z,49.00
2023-05-01T03:38:02.028Z,49.00
2023-05-01T03:40:28.973Z,49.00
2023-05-01T03:42:55.802Z,49.10
2023-05-01T03:45:22.688Z,49.10
2023-05-01T03:47:52.284Z,49.20
2023-05-01T03:50:19.256Z,49.40
2023-05-01T03:52:48.575Z,49.40
2023-05-01T03:55:17.714Z,49.40
2023-05-01T03:57:47.058Z,49.50
2023-05-01T04:00:14.236Z,49.50
2023-05-01T04:02:41.153Z,49.60
2023-05-01T04:05:10.852Z,49.60
2023-05-01T04:07:37.846Z,49.70
2023-05-01T04:10:07.144Z,49.70
2023-05-01T04:12:34.187Z,49.80
2023-05-01T04:15:03.831Z,49.80
2023-05-01T04:17:34.034Z,49.90
2023-05-01T04:20:01.069Z,49.90
2023-05-01T04:22:27.990Z,50.00
2023-05-01T04:24:54.873Z,50.00
2023-05-01T04:27:24.896Z,50.00
2023-05-01T04:29:54.977Z,50.00
2023-05-01T04:32:22.333Z,50.10
2023-05-01T04:34:49.480Z,50.10
2023-05-01T04:37:21.091Z,50.20
2023-05-01T04:39:47.995Z,50.30
2023-05-01T04:42:14.872Z,50.50
2023-05-01T04:44:41.938Z,50.30
2023-05-01T04:47:08.947Z,50.30
2023-05-01T04:49:41.003Z,50.40
2023-05-01T04:52:10.727Z,50.50
2023-05-01T04:54:37.574Z,50.50
2023-05-01T04:57:04.453Z,50.60
2023-05-01T04:59:31.268Z,50.60
2023-05-01T05:02:00.428Z,50.70
2023-05-01T05:04:28.121Z,50.70
2023-05-01T05:06:55.103Z,50.80
2023-05-01T05:09:21.954Z,50.90
2023-05-01T05:11:48.815Z,51.00
2023-05-01T05:14:15.780Z,51.00
2023-05-01T05:16:44.999Z,51.10
2023-05-01T05:19:11.900Z,51.10
2023-05-01T05:21:41.095Z,51.10
2023-05-01T05:24:10.208Z,51.20
2023-05-01T05:26:38.085Z,51.20
2023-05-01T05:29:05.004Z,51.20
2023-05-01T05:31:34.567Z,51.30
2023-05-01T05:34:03.636Z,51.30
2023-05-01T05:36:30.944Z,51.40
2023-05-01T05:38:57.863Z,51.50
2023-05-01T05:41:27.302Z,51.50
2023-05-01T05:43:54.397Z,51.50
2023-05-01T05:46:24.443Z,51.50
2023-05-01T05:48:53.671Z,51.50
2023-05-01T05:51:23.020Z,51.60
2023-05-01T05:53:49.971Z,51.60
2023-05-01T05:56:17.406Z,51.60
2023-05-01T05:58:46.599Z,51.70
2023-05-01T06:01:16.557Z,51.70
2023-05-01T06:03:45.651Z,51.70
2023-05-01T06:06:12.679Z,51.80
2023-05-01T06:08:39.668Z,51.80
2023-05-01T06:11:11.597Z,51.70
2023-05-01T06:13:41.090Z,51.60
2023-05-01T06:16:08.300Z,51.70
2023-05-01T06:18:37.941Z,51.70
2023-05-01T06:21:07.449Z,51.70
2023-05-01T06:23:37.068Z,51.70
2023-05-01T06:26:04.101Z,51.70
2023-05-01T06:28:31.066Z,51.70
2023-05-01T06:30:57.921Z,51.70
2023-05-01T06:33:24.853Z,51.70
2023-05-01T06:35:51.744Z,51.70
2023-05-01T06:38:25.647Z,51.70
2023-05-01T06:40:56.488Z,51.80
2023-05-01T06:43:23.393Z,51.80
2023-05-01T06:45:50.537Z,52.60
2023-05-01T06:48:19.678Z,52.00
2023-05-01T06:50:46.555Z,52.10
2023-05-01T06:53:13.846Z,52.10
2023-05-01T06:55:40.716Z,52.10
2023-05-01T06:58:22.519Z,52.10
2023-05-01T07:00:53.110Z,52.00
2023-05-01T07:03:20.148Z,52.00
2023-05-01T07:05:47.185Z,52.00
2023-05-01T07:08:16.334Z,52.00
2023-05-01T07:10:45.543Z,52.10
2023-05-01T07:13:12.520Z,52.10
2023-05-01T07:15:39.469Z,52.20
2023-05-01T07:18:06.532Z,52.30
2023-05-01T07:20:36.060Z,52.30
2023-05-01T07:23:04.703Z,52.40
2023-05-01T07:25:34.966Z,52.40
2023-05-01T07:28:05.250Z,52.50
2023-05-01T07:30:33.151Z,52.30
2023-05-01T07:33:05.835Z,52.10
2023-05-01T07:35:35.016Z,51.90
2023-05-01T07:38:02.449Z,51.70
2023-05-01T07:40:29.467Z,52.20
2023-05-01T07:42:58.839Z,51.40
2023-05-01T07:45:28.478Z,51.50
2023-05-01T07:48:02.093Z,51.60
2023-05-01T07:50:29.049Z,51.70
2023-05-01T07:52:56.073Z,51.70
2023-05-01T07:55:25.907Z,51.70
2023-05-01T07:57:52.797Z,51.70
2023-05-01T08:00:20.037Z,51.80
2023-05-01T08:02:54.631Z,51.70
2023-05-01T08:05:21.541Z,51.90
2023-05-01T08:07:48.487Z,51.70
2023-05-01T08:10:20.032Z,51.50
2023-05-01T08:12:46.798Z,51.50
2023-05-01T08:15:13.665Z,51.50
2023-05-01T08:17:40.573Z,51.30
2023-05-01T08:20:10.639Z,51.20
2023-05-01T08:22:37.469Z,51.10
2023-05-01T08:25:08.361Z,51.00
2023-05-01T08:27:37.511Z,50.90
2023-05-01T08:30:05.285Z,50.80
2023-05-01T08:32:32.392Z,50.70
2023-05-01T08:34:59.366Z,50.80
2023-05-01T08:37:26.774Z,50.70
2023-05-01T08:39:53.824Z,50.60
2023-05-01T08:42:21.398Z,50.70
2023-05-01T08:44:49.301Z,50.70
2023-05-01T08:47:18.379Z,50.70
2023-05-01T08:49:53.418Z,50.70
2023-05-01T08:52:22.215Z,50.70
2023-05-01T08:54:51.643Z,50.60
2023-05-01T08:57:23.980Z,50.60
2023-05-01T08:59:51.531Z,50.70
2023-05-01T09:02:21.627Z,50.70
2023-05-01T09:04:53.040Z,50.70
2023-05-01T09:07:22.492Z,50.80
2023-05-01T09:09:51.885Z,50.90
2023-05-01T09:12:28.091Z,51.00
2023-05-01T09:14:59.965Z,51.00
2023-05-01T09:17:27.373Z,51.10
2023-05-01T09:19:56.913Z,51.20
2023-05-01T09:22:24.811Z,51.20
2023-05-01T09:24:51.776Z,51.20
2023-05-01T09:27:19.223Z,51.20
2023-05-01T09:29:48.366Z,51.20
2023-05-01T09:32:31.260Z,51.30
2023-05-01T09:35:19.723Z,51.40
2023-05-01T09:37:50.987Z,51.50
2023-05-01T09:40:29.520Z,51.40
2023-05-01T09:42:59.091Z,51.50
2023-05-01T09:45:29.251Z,51.50
2023-05-01T09:48:14.508Z,51.60
2023-05-01T09:50:43.506Z,51.90
2023-05-01T09:53:13.215Z,51.90
2023-05-01T09:55:42.641Z,52.00
2023-05-01T09:58:29.683Z,52.20
2023-05-01T10:00:59.253Z,52.60
2023-05-01T10:03:27.224Z,52.40
2023-05-01T10:05:56.913Z,52.50
2023-05-01T10:08:29.047Z,52.60
2023-05-01T10:11:05.251Z,52.70
2023-05-01T10:13:32.391Z,52.90
2023-05-01T10:16:01.438Z,52.80
2023-05-01T10:18:34.092Z,52.90
2023-05-01T10:21:01.047Z,52.80
2023-05-01T10:23:28.293Z,52.80
2023-05-01T10:25:59.833Z,52.70
2023-05-01T10:28:31.319Z,52.60
2023-05-01T10:31:01.215Z,52.70
2023-05-01T10:33:31.227Z,52.70
2023-05-01T10:36:00.714Z,52.70
2023-05-01T10:38:35.316Z,52.80
2023-05-01T10:41:02.267Z,53.00
2023-05-01T10:43:31.145Z,52.90
2023-05-01T10:46:10.461Z,52.80
2023-05-01T10:48:43.801Z,53.10
2023-05-01T10:51:27.708Z,52.90
2023-05-01T10:54:13.859Z,53.00
2023-05-01T10:56:45.572Z,53.20
2023-05-01T10:59:13.021Z,53.10
2023-05-01T11:01:41.064Z,53.10
2023-05-01T11:04:28.025Z,53.10
2023-05-01T11:07:12.436Z,53.50
2023-05-01T11:09:44.324Z,53.40
2023-05-01T11:12:14.126Z,53.40
2023-05-01T11:15:03.270Z,53.40
2023-05-01T11:17:42.968Z,53.60
2023-05-01T11:20:36.945Z,53.70
2023-05-01T11:23:03.860Z,53.50
2023-05-01T11:25:32.903Z,53.40
2023-05-01T11:28:02.087Z,53.30
2023-05-01T11:30:42.038Z,53.40
2023-05-01T11:33:10.941Z,53.10
2023-05-01T11:35:39.820Z,53.00
2023-05-01T11:38:06.784Z,52.90
2023-05-01T11:40:35.051Z,52.80
2023-05-01T11:43:09.095Z,52.70
2023-05-01T11:45:37.714Z,52.80
2023-05-01T11:48:15.240Z,52.80
2023-05-01T11:50:42.303Z,52.90
2023-05-01T11:53:16.688Z,53.10
2023-05-01T11:55:44.494Z,53.20
2023-05-01T11:58:14.439Z,53.20
2023-05-01T12:00:43.756Z,53.10
2023-05-01T12:03:13.626Z,53.00
2023-05-01T12:05:46.130Z,52.90
2023-05-01T12:08:23.533Z,52.50
2023-05-01T12:10:57.958Z,52.40
2023-05-01T12:13:27.504Z,52.20
2023-05-01T12:15:57.297Z,52.00
2023-05-01T12:18:24.385Z,52.00
2023-05-01T12:20:57.858Z,51.70
2023-05-01T12:23:34.498Z,51.40
2023-05-01T12:26:03.414Z,51.20
2023-05-01T12:28:31.412Z,51.00
2023-05-01T12:31:05.372Z,50.90
2023-05-01T12:33:32.601Z,50.90
2023-05-01T12:36:13.433Z,50.70
2023-05-01T12:38:55.792Z,50.90
2023-05-01T12:41:46.596Z,50.90
2023-05-01T12:44:25.300Z,51.20
2023-05-01T12:47:07.883Z,51.10
2023-05-01T12:49:38.274Z,50.90
2023-05-01T12:52:09.077Z,50.80
2023-05-01T12:54:40.760Z,50.50
2023-05-01T12:57:15.490Z,50.40
2023-05-01T12:59:50.395Z,50.30
2023-05-01T13:02:18.576Z,50.20
2023-05-01T13:04:50.156Z,49.80
2023-05-01T13:07:19.381Z,49.90
2023-05-01T13:10:03.253Z,50.10
2023-05-01T13:12:33.482Z,50.00
2023-05-01T13:15:03.122Z,50.10
2023-05-01T13:17:35.898Z,49.90
2023-05-01T13:20:05.363Z,49.80
2023-05-01T13:22:34.070Z,49.60
2023-05-01T13:25:03.837Z,49.40
2023-05-01T13:27:30.922Z,49.40
2023-05-01T13:30:00.031Z,49.50
2023-05-01T13:32:27.613Z,49.40
2023-05-01T13:34:54.597Z,49.30
2023-05-01T13:37:22.339Z,49.10
2023-05-01T13:39:49.205Z,48.80
2023-05-01T13:42:25.024Z,48.60
2023-05-01T13:44:57.059Z,48.60
2023-05-01T13:47:26.898Z,48.80
2023-05-01T13:49:54.609Z,48.90
2023-05-01T13:52:21.847Z,48.80
2023-05-01T13:54:49.219Z,48.70
2023-05-01T13:57:17.348Z,48.80
2023-05-01T13:59:47.985Z,49.00
2023-05-01T14:02:27.047Z,49.20
2023-05-01T14:05:02.086Z,50.00
2023-05-01T14:07:29.305Z,49.00
2023-05-01T14:09:59.471Z,49.00
2023-05-01T14:12:31.725Z,49.00
2023-05-01T14:15:03.015Z,48.90
2023-05-01T14:17:31.969Z,48.90
2023-05-01T14:19:59.352Z,48.80
2023-05-01T14:22:30.901Z,48.70
2023-05-01T14:24:58.790Z,48.70
2023-05-01T14:27:28.412Z,48.80
2023-05-01T14:29:55.842Z,48.70
2023-05-01T14:32:25.052Z,48.80
2023-05-01T14:34:52.586Z,48.80
2023-05-01T14:37:19.521Z,48.70
2023-05-01T14:39:46.442Z,48.60
2023-05-01T14:42:14.133Z,48.40
2023-05-01T14:44:43.018Z,48.20
2023-05-01T14:47:09.988Z,48.30
2023-05-01T14:49:36.946Z,48.40
2023-05-01T14:52:04.063Z,48.10
2023-05-01T14:54:33.263Z,47.80
2023-05-01T14:57:03.828Z,47.80
2023-05-01T14:59:33.164Z,47.90
2023-05-01T15:02:02.553Z,48.00
2023-05-01T15:04:29.728Z,48.00
2023-05-01T15:06:58.892Z,48.10
2023-05-01T15:09:25.909Z,48.00
2023-05-01T15:11:52.800Z,48.00
2023-05-01T15:14:19.706Z,48.10
2023-05-01T15:16:48.769Z,48.00
2023-05-01T15:19:18.984Z,48.00
2023-05-01T15:21:45.858Z,48.00
2023-05-01T15:24:12.756Z,48.00
2023-05-01T15:26:42.604Z,48.10
2023-05-01T15:29:09.563Z,48.10
2023-05-01T15:31:39.079Z,48.20
2023-05-01T15:34:06.232Z,48.20
2023-05-01T15:36:33.797Z,48.20
2023-05-01T15:39:11.566Z,48.30
2023-05-01T15:41:38.889Z,48.50
2023-05-01T15:44:10.758Z,48.50
2023-05-01T15:46:40.273Z,48.50
2023-05-01T15:49:12.868Z,48.50
2023-05-01T15:51:44.501Z,48.50
2023-05-01T15:54:13.859Z,48.50
2023-05-01T15:56:42.881Z,48.20
2023-05-01T15:59:09.903Z,48.10
2023-05-01T16:01:39.078Z,48.10
2023-05-01T16:04:06.126Z,48.10
2023-05-01T16:06:35.390Z,48.00
2023-05-01T16:09:02.913Z,48.00
2023-05-01T16:11:31.122Z,48.00
2023-05-01T16:14:00.637Z,48.00
2023-05-01T16:16:31.589Z,47.80
2023-05-01T16:19:02.020Z,47.80
2023-05-01T16:21:28.921Z,47.80
2023-05-01T16:23:58.441Z,47.70
2023-05-01T16:26:28.929Z,47.50
2023-05-01T16:29:02.799Z,47.40
2023-05-01T16:31:38.783Z,47.20
2023-05-01T16:34:10.099Z,47.10
2023-05-01T16:36:42.374Z,47.00
2023-05-01T16:39:19.210Z,46.90
2023-05-01T16:41:55.984Z,46.90
2023-05-01T16:44:25.686Z,47.20
2023-05-01T16:46:58.720Z,47.40
2023-05-01T16:49:28.243Z,47.70
2023-05-01T16:51:59.467Z,47.80
2023-05-01T16:54:35.809Z,47.90
2023-05-01T16:57:06.686Z,48.10
2023-05-01T16:59:34.495Z,48.20
2023-05-01T17:02:01.478Z,48.20
2023-05-01T17:04:33.525Z,48.20
2023-05-01T17:07:02.953Z,48.30
2023-05-01T17:09:30.079Z,48.30
2023-05-01T17:11:57.565Z,48.40
2023-05-01T17:14:24.594Z,48.40
2023-05-01T17:16:51.796Z,48.50
2023-05-01T17:19:18.672Z,48.60
2023-05-01T17:21:48.168Z,48.60
2023-05-01T17:24:15.214Z,48.80
2023-05-01T17:26:44.874Z,48.80
2023-05-01T17:29:11.806Z,48.90
2023-05-01T17:31:41.056Z,49.00
2023-05-01T17:34:10.394Z,49.10
2023-05-01T17:36:37.847Z,49.00
2023-05-01T17:39:06.913Z,49.00
2023-05-01T17:41:33.779Z,48.90
2023-05-01T17:44:03.216Z,48.80
2023-05-01T17:46:32.725Z,48.70
2023-05-01T17:49:01.878Z,48.80
2023-05-01T17:51:31.367Z,48.90
2023-05-01T17:53:58.236Z,49.00
2023-05-01T17:56:28.262Z,49.10
2023-05-01T17:58:55.283Z,49.20
2023-05-01T18:01:22.329Z,49.20
2023-05-01T18:03:49.786Z,49.30
2023-05-01T18:06:17.234Z,49.30
2023-05-01T18:08:46.999Z,49.30
2023-05-01T18:11:16.220Z,49.40
2023-05-01T18:13:47.197Z,49.40
2023-05-01T18:16:19.843Z,49.50
2023-05-01T18:18:53.014Z,49.60
2023-05-01T18:21:22.133Z,49.60
2023-05-01T18:23:51.259Z,49.70
2023-05-01T18:26:20.638Z,49.80
2023-05-01T18:28:47.797Z,49.80
2023-05-01T18:31:15.838Z,49.80
2023-05-01T18:33:42.762Z,49.80
2023-05-01T18:36:10.708Z,49.90
2023-05-01T18:38:40.122Z,49.90
2023-05-01T18:41:09.389Z,50.00
2023-05-01T18:43:38.734Z,50.10
2023-05-01T18:46:07.808Z,50.00
2023-05-01T18:48:34.772Z,50.00
2023-05-01T18:53:33.932Z,50.10
2023-05-01T18:56:03.409Z,50.10
2023-05-01T18:58:32.375Z,50.00
2023-05-01T19:01:02.381Z,50.70
2023-05-01T19:03:31.343Z,50.10
2023-05-01T19:05:58.510Z,50.10
2023-05-01T19:08:28.013Z,50.10
2023-05-01T19:10:54.950Z,50.10
2023-05-01T19:13:21.818Z,50.20
2023-05-01T19:15:53.556Z,50.20
2023-05-01T19:18:20.431Z,50.30
2023-05-01T19:20:49.874Z,50.40
2023-05-01T19:23:16.771Z,50.40
2023-05-01T19:25:43.668Z,51.10
2023-05-01T19:28:12.700Z,51.20
2023-05-01T19:30:41.246Z,50.60
2023-05-01T19:33:10.506Z,50.70
2023-05-01T19:35:38.389Z,50.70
2023-05-01T19:38:05.309Z,50.80
2023-05-01T19:40:37.113Z,50.80
2023-05-01T19:43:04.089Z,50.90
2023-05-01T19:45:31.080Z,51.00
2023-05-01T19:47:58.243Z,51.10
2023-05-01T19:50:27.531Z,51.10
2023-05-01T19:52:54.492Z,51.20
2023-05-01T19:55:23.813Z,51.20
2023-05-01T19:57:51.934Z,51.30
2023-05-01T20:00:19.019Z,51.30
2023-05-01T20:02:48.646Z,51.40
2023-05-01T20:05:15.657Z,51.40
2023-05-01T20:07:42.554Z,51.50
2023-05-01T20:10:09.854Z,51.50
2023-05-01T20:12:39.274Z,51.60
2023-05-01T20:15:06.907Z,51.80
2023-05-01T20:17:36.163Z,51.80
2023-05-01T20:20:03.300Z,51.80
2023-05-01T20:22:30.531Z,51.80
2023-05-01T20:25:02.058Z,51.80
2023-05-01T20:27:31.278Z,51.90
2023-05-01T20:30:01.229Z,52.00
2023-05-01T20:32:30.508Z,52.00
2023-05-01T20:34:57.916Z,52.00
2023-05-01T20:37:24.985Z,52.00
2023-05-01T20:39:54.195Z,52.00
2023-05-01T20:42:21.861Z,52.00
2023-05-01T20:44:49.103Z,51.90
2023-05-01T20:47:18.834Z,51.90
2023-05-01T20:49:45.909Z,51.90
2023-05-01T20:52:13.393Z,51.90
2023-05-01T20:54:44.084Z,51.90
2023-05-01T20:57:11.125Z,51.90
2023-05-01T20:59:38.575Z,51.80
2023-05-01T21:02:05.782Z,51.90
2023-05-01T21:04:33.084Z,51.90
2023-05-01T21:07:02.310Z,51.90
2023-05-01T21:09:31.970Z,51.80
2023-05-01T21:12:01.129Z,51.90
2023-05-01T21:14:30.962Z,52.00
2023-05-01T21:17:00.821Z,52.10
2023-05-01T21:19:27.986Z,52.30
2023-05-01T21:21:55.376Z,52.30
2023-05-01T21:24:30.754Z,52.60
2023-05-01T21:27:01.730Z,52.80
2023-05-01T21:29:30.924Z,52.70
2023-05-01T21:32:04.081Z,52.80
2023-05-01T21:34:36.506Z,52.90
2023-05-01T21:37:05.067Z,52.90
2023-05-01T21:39:34.124Z,53.00
2023-05-01T21:42:02.655Z,53.10
2023-05-01T21:44:30.882Z,53.20
2023-05-01T21:47:00.475Z,53.20
2023-05-01T21:49:27.717Z,53.30
2023-05-01T21:51:59.935Z,53.30
2023-05-01T21:54:30.668Z,53.40
2023-05-01T21:57:07.540Z,53.30
2023-05-01T21:59:37.900Z,53.40
2023-05-01T22:02:10.132Z,53.40
2023-05-01T22:04:40.540Z,53.50
2023-05-01T22:07:07.462Z,53.40
2023-05-01T22:09:36.588Z,53.50
2023-05-01T22:12:06.001Z,53.50
2023-05-01T22:14:47.162Z,53.40
2023-05-01T22:17:16.556Z,53.50
2023-05-01T22:20:03.597Z,53.40
2023-05-01T22:22:32.943Z,53.40
2023-05-01T22:24:59.951Z,53.40
2023-05-01T22:27:26.893Z,53.30
2023-05-01T22:29:58.594Z,53.30
2023-05-01T22:32:25.730Z,53.40
2023-05-01T22:34:55.341Z,53.40
2023-05-01T22:37:22.454Z,53.50
2023-05-01T22:39:49.353Z,53.50
2023-05-01T22:42:16.637Z,53.50
2023-05-01T22:44:46.120Z,53.50
2023-05-01T22:47:15.713Z,53.50
2023-05-01T22:49:42.641Z,53.50
2023-05-01T22:52:09.490Z,53.50
2023-05-01T22:54:38.849Z,53.50
2023-05-01T22:57:05.786Z,53.40
2023-05-01T22:59:40.627Z,53.40
2023-05-01T23:02:08.118Z,53.40
2023-05-01T23:04:37.775Z,53.40
2023-05-01T23:07:04.761Z,53.40
2023-05-01T23:09:32.413Z,54.10
2023-05-01T23:11:59.322Z,53.40
2023-05-01T23:14:29.197Z,53.40
2023-05-01T23:16:56.088Z,54.20
2023-05-01T23:19:30.875Z,53.50
2023-05-01T23:22:13.103Z,53.50
2023-05-01T23:24:50.887Z,53.60
2023-05-01T23:27:19.617Z,53.60
2023-05-01T23:29:58.333Z,53.50
2023-05-01T23:32:30.616Z,53.60
2023-05-01T23:35:24.779Z,53.50
2023-05-01T23:37:52.954Z,53.80
2023-05-01T23:40:25.083Z,53.60
2023-05-01T23:42:55.045Z,53.70
2023-05-01T23:45:21.912Z,53.70
2023-05-01T23:47:50.624Z,53.70
2023-05-01T23:50:25.071Z,53.70
2023-05-01T23:52:55.423Z,53.80
2023-05-01T23:55:23.097Z,53.90
2023-05-01T23:57:53.677Z,53.90
